sensor_id;sensor_type;location;lat;lon;timestamp;P1;durP1;ratioP1;P2;durP2;ratioP2
14611;SDS011;7392;52.078;11.650;2023-03-23T00:02:22;1.53;;;1.20;;
14611;SDS011;7392;52.078;11.650;2023-03-23T00:04:51;1.33;;;1.20;;
14611;SDS011;7392;52.078;11.650;2023-03-23T00:07:18;1.10;;;1.00;;
14611;SDS011;7392;52.078;11.650;2023-03-23T00:09:46;1.40;;;1.30;;
14611;SDS011;7392;52.078;11.650;2023-03-23T00:12:18;1.40;;;1.30;;
14611;SDS011;7392;52.078;11.650;2023-03-23T00:14:45;1.40;;;1.30;;
14611;SDS011;7392;52.078;11.650;2023-03-23T00:17:12;1.23;;;1.00;;
14611;SDS011;7392;52.078;11.650;2023-03-23T00:19:39;1.37;;;1.27;;
14611;SDS011;7392;52.078;11.650;2023-03-23T00:22:12;1.10;;;1.00;;
14611;SDS011;7392;52.078;11.650;2023-03-23T00:24:40;1.90;;;1.30;;
14611;SDS011;7392;52.078;11.650;2023-03-23T00:27:07;1.50;;;1.30;;
14611;SDS011;7392;52.078;11.650;2023-03-23T00:29:37;2.03;;;1.13;;
14611;SDS011;7392;52.078;11.650;2023-03-23T00:32:05;1.30;;;1.20;;
14611;SDS011;7392;52.078;11.650;2023-03-23T00:34:31;2.30;;;1.20;;
14611;SDS011;7392;52.078;11.650;2023-03-23T00:36:59;1.30;;;1.20;;
14611;SDS011;7392;52.078;11.650;2023-03-23T00:39:27;1.40;;;1.10;;
14611;SDS011;7392;52.078;11.650;2023-03-23T00:41:54;1.20;;;1.10;;
14611;SDS011;7392;52.078;11.650;2023-03-23T00:44:26;1.30;;;1.10;;
14611;SDS011;7392;52.078;11.650;2023-03-23T00:46:53;2.03;;;1.30;;
14611;SDS011;7392;52.078;11.650;2023-03-23T00:49:21;3.00;;;1.30;;
14611;SDS011;7392;52.078;11.650;2023-03-23T00:51:51;1.37;;;1.13;;
14611;SDS011;7392;52.078;11.650;2023-03-23T00:54:18;1.73;;;1.13;;
14611;SDS011;7392;52.078;11.650;2023-03-23T00:56:46;2.90;;;1.10;;
14611;SDS011;7392;52.078;11.650;2023-03-23T00:59:13;1.17;;;1.07;;
14611;SDS011;7392;52.078;11.650;2023-03-23T01:01:40;1.80;;;1.30;;
14611;SDS011;7392;52.078;11.650;2023-03-23T01:04:07;1.60;;;1.20;;
14611;SDS011;7392;52.078;11.650;2023-03-23T01:06:38;2.73;;;1.50;;
14611;SDS011;7392;52.078;11.650;2023-03-23T01:09:08;1.30;;;1.20;;
14611;SDS011;7392;52.078;11.650;2023-03-23T01:11:36;1.60;;;1.10;;
14611;SDS011;7392;52.078;11.650;2023-03-23T01:14:05;1.63;;;1.20;;
14611;SDS011;7392;52.078;11.650;2023-03-23T01:16:32;1.10;;;1.00;;
14611;SDS011;7392;52.078;11.650;2023-03-23T01:18:58;1.17;;;1.07;;
14611;SDS011;7392;52.078;11.650;2023-03-23T01:21:25;1.00;;;0.80;;
14611;SDS011;7392;52.078;11.650;2023-03-23T01:23:52;2.50;;;1.10;;
14611;SDS011;7392;52.078;11.650;2023-03-23T01:26:19;1.47;;;1.10;;
14611;SDS011;7392;52.078;11.650;2023-03-23T01:28:47;1.63;;;1.20;;
14611;SDS011;7392;52.078;11.650;2023-03-23T01:31:16;1.20;;;1.10;;
14611;SDS011;7392;52.078;11.650;2023-03-23T01:33:45;1.33;;;1.10;;
14611;SDS011;7392;52.078;11.650;2023-03-23T01:36:13;1.27;;;1.10;;
14611;SDS011;7392;52.078;11.650;2023-03-23T01:38:42;1.07;;;0.80;;
14611;SDS011;7392;52.078;11.650;2023-03-23T01:41:10;0.90;;;0.90;;
14611;SDS011;7392;52.078;11.650;2023-03-23T01:43:53;1.07;;;0.97;;
14611;SDS011;7392;52.078;11.650;2023-03-23T01:46:23;1.10;;;1.00;;
14611;SDS011;7392;52.078;11.650;2023-03-23T01:48:52;1.23;;;1.03;;
14611;SDS011;7392;52.078;11.650;2023-03-23T01:51:20;1.40;;;0.87;;
14611;SDS011;7392;52.078;11.650;2023-03-23T01:53:51;1.43;;;0.80;;
14611;SDS011;7392;52.078;11.650;2023-03-23T01:56:22;2.00;;;1.10;;
14611;SDS011;7392;52.078;11.650;2023-03-23T01:58:52;1.80;;;1.23;;
14611;SDS011;7392;52.078;11.650;2023-03-23T02:01:21;1.33;;;1.13;;
14611;SDS011;7392;52.078;11.650;2023-03-23T02:03:51;1.20;;;1.10;;
14611;SDS011;7392;52.078;11.650;2023-03-23T02:06:20;1.20;;;1.10;;
14611;SDS011;7392;52.078;11.650;2023-03-23T02:09:05;2.30;;;1.40;;
14611;SDS011;7392;52.078;11.650;2023-03-23T02:11:33;1.33;;;1.03;;
14611;SDS011;7392;52.078;11.650;2023-03-23T02:14:00;2.43;;;1.10;;
14611;SDS011;7392;52.078;11.650;2023-03-23T02:16:31;1.40;;;1.23;;
14611;SDS011;7392;52.078;11.650;2023-03-23T02:19:10;1.50;;;1.03;;
14611;SDS011;7392;52.078;11.650;2023-03-23T02:21:54;1.30;;;1.20;;
14611;SDS011;7392;52.078;11.650;2023-03-23T02:27:35;1.63;;;1.10;;
14611;SDS011;7392;52.078;11.650;2023-03-23T02:30:23;1.53;;;1.20;;
14611;SDS011;7392;52.078;11.650;2023-03-23T02:33:16;1.60;;;1.20;;
14611;SDS011;7392;52.078;11.650;2023-03-23T02:35:56;1.37;;;1.10;;
14611;SDS011;7392;52.078;11.650;2023-03-23T02:38:28;1.27;;;1.00;;
14611;SDS011;7392;52.078;11.650;2023-03-23T02:40:59;1.20;;;1.00;;
14611;SDS011;7392;52.078;11.650;2023-03-23T02:43:30;1.10;;;1.00;;
14611;SDS011;7392;52.078;11.650;2023-03-23T02:46:03;1.10;;;1.00;;
14611;SDS011;7392;52.078;11.650;2023-03-23T02:48:33;1.50;;;0.97;;
14611;SDS011;7392;52.078;11.650;2023-03-23T02:51:03;1.40;;;0.80;;
14611;SDS011;7392;52.078;11.650;2023-03-23T02:53:33;0.87;;;0.70;;
14611;SDS011;7392;52.078;11.650;2023-03-23T02:56:03;0.70;;;0.70;;
14611;SDS011;7392;52.078;11.650;2023-03-23T02:58:33;0.90;;;0.70;;
14611;SDS011;7392;52.078;11.650;2023-03-23T03:01:10;0.73;;;0.70;;
14611;SDS011;7392;52.078;11.650;2023-03-23T03:04:00;1.67;;;0.90;;
14611;SDS011;7392;52.078;11.650;2023-03-23T03:06:31;0.73;;;0.73;;
14611;SDS011;7392;52.078;11.650;2023-03-23T03:09:02;0.80;;;0.80;;
14611;SDS011;7392;52.078;11.650;2023-03-23T03:11:33;1.37;;;0.83;;
14611;SDS011;7392;52.078;11.650;2023-03-23T03:14:04;0.83;;;0.80;;
14611;SDS011;7392;52.078;11.650;2023-03-23T03:16:37;0.93;;;0.90;;
14611;SDS011;7392;52.078;11.650;2023-03-23T03:19:09;1.47;;;1.27;;
14611;SDS011;7392;52.078;11.650;2023-03-23T03:21:41;2.27;;;1.20;;
14611;SDS011;7392;52.078;11.650;2023-03-23T03:24:14;2.93;;;1.27;;
14611;SDS011;7392;52.078;11.650;2023-03-23T03:26:48;2.17;;;1.20;;
14611;SDS011;7392;52.078;11.650;2023-03-23T03:29:23;1.50;;;1.17;;
14611;SDS011;7392;52.078;11.650;2023-03-23T03:31:57;1.43;;;1.23;;
14611;SDS011;7392;52.078;11.650;2023-03-23T03:34:27;1.43;;;0.97;;
14611;SDS011;7392;52.078;11.650;2023-03-23T03:36:57;1.13;;;1.03;;
14611;SDS011;7392;52.078;11.650;2023-03-23T03:39:25;0.97;;;0.87;;
14611;SDS011;7392;52.078;11.650;2023-03-23T03:41:53;1.60;;;1.10;;
14611;SDS011;7392;52.078;11.650;2023-03-23T03:44:20;1.40;;;1.20;;
14611;SDS011;7392;52.078;11.650;2023-03-23T03:46:47;3.20;;;1.27;;
14611;SDS011;7392;52.078;11.650;2023-03-23T03:49:14;1.67;;;1.40;;
14611;SDS011;7392;52.078;11.650;2023-03-23T03:51:43;1.80;;;1.43;;
14611;SDS011;7392;52.078;11.650;2023-03-23T03:54:19;2.23;;;0.93;;
14611;SDS011;7392;52.078;11.650;2023-03-23T03:56:45;0.93;;;0.90;;
14611;SDS011;7392;52.078;11.650;2023-03-23T03:59:36;1.60;;;1.03;;
14611;SDS011;7392;52.078;11.650;2023-03-23T04:02:27;2.33;;;1.33;;
14611;SDS011;7392;52.078;11.650;2023-03-23T04:04:54;1.10;;;1.00;;
14611;SDS011;7392;52.078;11.650;2023-03-23T04:07:22;2.03;;;1.30;;
14611;SDS011;7392;52.078;11.650;2023-03-23T04:09:51;1.63;;;1.30;;
14611;SDS011;7392;52.078;11.650;2023-03-23T04:13:59;1.50;;;1.30;;
14611;SDS011;7392;52.078;11.650;2023-03-23T04:16:35;1.40;;;1.30;;
14611;SDS011;7392;52.078;11.650;2023-03-23T04:19:02;1.80;;;1.10;;
14611;SDS011;7392;52.078;11.650;2023-03-23T04:21:29;2.70;;;1.47;;
14611;SDS011;7392;52.078;11.650;2023-03-23T04:23:55;1.27;;;1.10;;
14611;SDS011;7392;52.078;11.650;2023-03-23T04:26:25;1.67;;;1.20;;
14611;SDS011;7392;52.078;11.650;2023-03-23T04:28:56;2.13;;;1.10;;
14611;SDS011;7392;52.078;11.650;2023-03-23T04:31:34;1.17;;;1.07;;
14611;SDS011;7392;52.078;11.650;2023-03-23T04:34:13;1.80;;;1.50;;
14611;SDS011;7392;52.078;11.650;2023-03-23T04:36:44;1.80;;;1.27;;
14611;SDS011;7392;52.078;11.650;2023-03-23T04:39:15;1.40;;;1.30;;
14611;SDS011;7392;52.078;11.650;2023-03-23T04:41:43;1.67;;;1.40;;
14611;SDS011;7392;52.078;11.650;2023-03-23T04:44:31;1.83;;;1.40;;
14611;SDS011;7392;52.078;11.650;2023-03-23T04:47:04;1.90;;;1.43;;
14611;SDS011;7392;52.078;11.650;2023-03-23T04:49:36;1.67;;;1.50;;
14611;SDS011;7392;52.078;11.650;2023-03-23T04:52:15;2.20;;;1.60;;
14611;SDS011;7392;52.078;11.650;2023-03-23T04:54:47;1.50;;;1.30;;
14611;SDS011;7392;52.078;11.650;2023-03-23T04:57:14;1.40;;;1.30;;
14611;SDS011;7392;52.078;11.650;2023-03-23T04:59:51;1.30;;;1.20;;
14611;SDS011;7392;52.078;11.650;2023-03-23T05:02:25;2.03;;;1.23;;
14611;SDS011;7392;52.078;11.650;2023-03-23T05:04:55;2.00;;;1.27;;
14611;SDS011;7392;52.078;11.650;2023-03-23T05:07:25;1.50;;;1.30;;
14611;SDS011;7392;52.078;11.650;2023-03-23T05:09:53;1.70;;;1.47;;
14611;SDS011;7392;52.078;11.650;2023-03-23T05:12:23;1.73;;;1.50;;
14611;SDS011;7392;52.078;11.650;2023-03-23T05:14:53;3.33;;;1.60;;
14611;SDS011;7392;52.078;11.650;2023-03-23T05:17:23;2.90;;;1.80;;
14611;SDS011;7392;52.078;11.650;2023-03-23T05:19:54;1.57;;;1.30;;
14611;SDS011;7392;52.078;11.650;2023-03-23T05:22:40;2.47;;;1.30;;
14611;SDS011;7392;52.078;11.650;2023-03-23T05:25:07;1.93;;;1.67;;
14611;SDS011;7392;52.078;11.650;2023-03-23T05:27:38;3.17;;;1.70;;
14611;SDS011;7392;52.078;11.650;2023-03-23T05:30:18;2.53;;;1.63;;
14611;SDS011;7392;52.078;11.650;2023-03-23T05:32:46;2.97;;;1.40;;
14611;SDS011;7392;52.078;11.650;2023-03-23T05:35:29;1.70;;;1.30;;
14611;SDS011;7392;52.078;11.650;2023-03-23T05:37:56;2.27;;;1.40;;
14611;SDS011;7392;52.078;11.650;2023-03-23T05:40:23;1.73;;;1.30;;
14611;SDS011;7392;52.078;11.650;2023-03-23T05:42:56;1.37;;;1.20;;
14611;SDS011;7392;52.078;11.650;2023-03-23T05:45:41;1.70;;;1.30;;
14611;SDS011;7392;52.078;11.650;2023-03-23T05:48:08;2.00;;;1.30;;
14611;SDS011;7392;52.078;11.650;2023-03-23T05:50:36;2.23;;;1.27;;
14611;SDS011;7392;52.078;11.650;2023-03-23T05:53:04;4.47;;;1.63;;
14611;SDS011;7392;52.078;11.650;2023-03-23T05:55:35;2.43;;;1.50;;
14611;SDS011;7392;52.078;11.650;2023-03-23T05:58:12;1.80;;;1.40;;
14611;SDS011;7392;52.078;11.650;2023-03-23T06:00:41;3.93;;;1.57;;
14611;SDS011;7392;52.078;11.650;2023-03-23T06:03:19;3.13;;;1.40;;
14611;SDS011;7392;52.078;11.650;2023-03-23T06:05:57;2.10;;;1.40;;
14611;SDS011;7392;52.078;11.650;2023-03-23T06:08:32;2.20;;;1.60;;
14611;SDS011;7392;52.078;11.650;2023-03-23T06:11:02;2.50;;;1.60;;
14611;SDS011;7392;52.078;11.650;2023-03-23T06:13:32;3.30;;;1.60;;
14611;SDS011;7392;52.078;11.650;2023-03-23T06:16:06;2.00;;;1.30;;
14611;SDS011;7392;52.078;11.650;2023-03-23T06:18:48;1.50;;;1.40;;
14611;SDS011;7392;52.078;11.650;2023-03-23T06:21:26;4.23;;;1.57;;
14611;SDS011;7392;52.078;11.650;2023-03-23T06:23:57;1.83;;;1.40;;
14611;SDS011;7392;52.078;11.650;2023-03-23T06:26:28;4.03;;;1.87;;
14611;SDS011;7392;52.078;11.650;2023-03-23T06:29:00;1.87;;;1.60;;
14611;SDS011;7392;52.078;11.650;2023-03-23T06:31:30;2.93;;;1.60;;
14611;SDS011;7392;52.078;11.650;2023-03-23T06:34:01;4.33;;;1.47;;
14611;SDS011;7392;52.078;11.650;2023-03-23T06:36:53;2.00;;;1.37;;
14611;SDS011;7392;52.078;11.650;2023-03-23T06:39:30;2.77;;;1.63;;
14611;SDS011;7392;52.078;11.650;2023-03-23T06:42:18;2.17;;;1.50;;
14611;SDS011;7392;52.078;11.650;2023-03-23T06:44:51;2.80;;;1.70;;
14611;SDS011;7392;52.078;11.650;2023-03-23T06:47:24;3.23;;;1.70;;
14611;SDS011;7392;52.078;11.650;2023-03-23T06:49:52;2.30;;;1.60;;
14611;SDS011;7392;52.078;11.650;2023-03-23T06:52:25;3.47;;;1.80;;
14611;SDS011;7392;52.078;11.650;2023-03-23T06:54:53;1.63;;;1.53;;
14611;SDS011;7392;52.078;11.650;2023-03-23T06:57:22;3.07;;;1.50;;
14611;SDS011;7392;52.078;11.650;2023-03-23T06:59:51;1.57;;;1.40;;
14611;SDS011;7392;52.078;11.650;2023-03-23T07:02:20;1.70;;;1.43;;
14611;SDS011;7392;52.078;11.650;2023-03-23T07:04:50;1.83;;;1.30;;
14611;SDS011;7392;52.078;11.650;2023-03-23T07:07:21;3.43;;;1.90;;
14611;SDS011;7392;52.078;11.650;2023-03-23T07:09:57;2.50;;;1.87;;
14611;SDS011;7392;52.078;11.650;2023-03-23T07:12:25;2.20;;;2.00;;
14611;SDS011;7392;52.078;11.650;2023-03-23T07:14:54;2.57;;;1.90;;
14611;SDS011;7392;52.078;11.650;2023-03-23T07:17:21;2.60;;;2.10;;
14611;SDS011;7392;52.078;11.650;2023-03-23T07:20:01;2.30;;;1.97;;
14611;SDS011;7392;52.078;11.650;2023-03-23T07:22:28;2.77;;;1.73;;
14611;SDS011;7392;52.078;11.650;2023-03-23T07:25:05;2.00;;;1.80;;
14611;SDS011;7392;52.078;11.650;2023-03-23T07:27:47;1.70;;;1.50;;
14611;SDS011;7392;52.078;11.650;2023-03-23T07:30:15;2.27;;;1.53;;
14611;SDS011;7392;52.078;11.650;2023-03-23T07:32:42;1.57;;;1.17;;
14611;SDS011;7392;52.078;11.650;2023-03-23T07:35:10;2.53;;;1.53;;
14611;SDS011;7392;52.078;11.650;2023-03-23T07:37:56;1.87;;;1.27;;
14611;SDS011;7392;52.078;11.650;2023-03-23T07:40:24;1.87;;;1.47;;
14611;SDS011;7392;52.078;11.650;2023-03-23T07:42:57;2.80;;;2.23;;
14611;SDS011;7392;52.078;11.650;2023-03-23T07:45:37;2.13;;;1.57;;
14611;SDS011;7392;52.078;11.650;2023-03-23T07:48:05;2.13;;;1.60;;
14611;SDS011;7392;52.078;11.650;2023-03-23T07:50:32;2.13;;;1.50;;
14611;SDS011;7392;52.078;11.650;2023-03-23T07:53:04;2.13;;;1.60;;
14611;SDS011;7392;52.078;11.650;2023-03-23T07:55:33;2.33;;;1.60;;
14611;SDS011;7392;52.078;11.650;2023-03-23T07:58:03;1.97;;;1.57;;
14611;SDS011;7392;52.078;11.650;2023-03-23T08:00:30;1.40;;;1.30;;
14611;SDS011;7392;52.078;11.650;2023-03-23T08:03:04;2.03;;;1.43;;
14611;SDS011;7392;52.078;11.650;2023-03-23T08:05:50;1.63;;;1.27;;
14611;SDS011;7392;52.078;11.650;2023-03-23T08:08:35;3.20;;;1.30;;
14611;SDS011;7392;52.078;11.650;2023-03-23T08:11:22;1.53;;;1.40;;
14611;SDS011;7392;52.078;11.650;2023-03-23T08:14:06;1.60;;;1.50;;
14611;SDS011;7392;52.078;11.650;2023-03-23T08:17:02;1.93;;;1.50;;
14611;SDS011;7392;52.078;11.650;2023-03-23T08:19:31;3.17;;;1.50;;
14611;SDS011;7392;52.078;11.650;2023-03-23T08:22:22;2.43;;;2.00;;
14611;SDS011;7392;52.078;11.650;2023-03-23T08:25:10;2.83;;;2.30;;
14611;SDS011;7392;52.078;11.650;2023-03-23T08:28:18;3.67;;;1.80;;
14611;SDS011;7392;52.078;11.650;2023-03-23T08:33:06;1.70;;;1.60;;
14611;SDS011;7392;52.078;11.650;2023-03-23T08:35:53;2.77;;;1.77;;
14611;SDS011;7392;52.078;11.650;2023-03-23T08:38:40;5.70;;;2.10;;
14611;SDS011;7392;52.078;11.650;2023-03-23T08:41:08;2.07;;;1.60;;
14611;SDS011;7392;52.078;11.650;2023-03-23T08:43:50;2.17;;;1.70;;
14611;SDS011;7392;52.078;11.650;2023-03-23T08:46:44;2.03;;;1.70;;
14611;SDS011;7392;52.078;11.650;2023-03-23T08:49:12;1.60;;;1.30;;
14611;SDS011;7392;52.078;11.650;2023-03-23T08:51:57;2.37;;;1.57;;
14611;SDS011;7392;52.078;11.650;2023-03-23T08:54:47;2.90;;;1.60;;
14611;SDS011;7392;52.078;11.650;2023-03-23T08:57:35;1.70;;;1.30;;
14611;SDS011;7392;52.078;11.650;2023-03-23T09:00:25;1.90;;;1.27;;
14611;SDS011;7392;52.078;11.650;2023-03-23T09:03:04;2.13;;;1.30;;
14611;SDS011;7392;52.078;11.650;2023-03-23T09:05:50;2.60;;;1.60;;
14611;SDS011;7392;52.078;11.650;2023-03-23T09:08:31;1.70;;;1.40;;
14611;SDS011;7392;52.078;11.650;2023-03-23T09:11:00;2.03;;;1.53;;
14611;SDS011;7392;52.078;11.650;2023-03-23T09:13:27;3.30;;;1.50;;
14611;SDS011;7392;52.078;11.650;2023-03-23T09:15:54;3.00;;;1.50;;
14611;SDS011;7392;52.078;11.650;2023-03-23T09:18:21;3.37;;;1.73;;
14611;SDS011;7392;52.078;11.650;2023-03-23T09:20:49;2.07;;;1.57;;
14611;SDS011;7392;52.078;11.650;2023-03-23T09:23:17;3.03;;;1.60;;
14611;SDS011;7392;52.078;11.650;2023-03-23T09:25:44;2.57;;;1.57;;
14611;SDS011;7392;52.078;11.650;2023-03-23T09:28:11;1.60;;;1.47;;
14611;SDS011;7392;52.078;11.650;2023-03-23T09:30:38;2.37;;;1.43;;
14611;SDS011;7392;52.078;11.650;2023-03-23T09:33:06;2.63;;;1.50;;
14611;SDS011;7392;52.078;11.650;2023-03-23T09:35:33;2.27;;;1.50;;
14611;SDS011;7392;52.078;11.650;2023-03-23T09:38:05;1.50;;;1.40;;
14611;SDS011;7392;52.078;11.650;2023-03-23T09:40:33;1.80;;;1.40;;
14611;SDS011;7392;52.078;11.650;2023-03-23T09:43:24;1.60;;;1.50;;
14611;SDS011;7392;52.078;11.650;2023-03-23T09:46:01;3.90;;;1.47;;
14611;SDS011;7392;52.078;11.650;2023-03-23T09:48:42;2.27;;;1.50;;
14611;SDS011;7392;52.078;11.650;2023-03-23T09:51:19;1.30;;;1.20;;
14611;SDS011;7392;52.078;11.650;2023-03-23T09:53:59;1.53;;;1.30;;
14611;SDS011;7392;52.078;11.650;2023-03-23T09:56:30;2.40;;;1.87;;
14611;SDS011;7392;52.078;11.650;2023-03-23T09:58:59;4.77;;;2.37;;
14611;SDS011;7392;52.078;11.650;2023-03-23T10:01:31;3.63;;;3.10;;
14611;SDS011;7392;52.078;11.650;2023-03-23T10:04:02;4.83;;;2.90;;
14611;SDS011;7392;52.078;11.650;2023-03-23T10:06:38;3.93;;;1.70;;
14611;SDS011;7392;52.078;11.650;2023-03-23T10:09:08;2.60;;;2.10;;
14611;SDS011;7392;52.078;11.650;2023-03-23T10:11:44;2.00;;;1.80;;
14611;SDS011;7392;52.078;11.650;2023-03-23T10:14:22;2.97;;;2.03;;
14611;SDS011;7392;52.078;11.650;2023-03-23T10:16:59;2.37;;;1.90;;
14611;SDS011;7392;52.078;11.650;2023-03-23T10:19:32;2.93;;;2.10;;
14611;SDS011;7392;52.078;11.650;2023-03-23T10:22:03;2.07;;;1.40;;
14611;SDS011;7392;52.078;11.650;2023-03-23T10:24:35;2.60;;;1.80;;
14611;SDS011;7392;52.078;11.650;2023-03-23T10:27:10;2.17;;;1.53;;
14611;SDS011;7392;52.078;11.650;2023-03-23T10:29:49;3.53;;;1.83;;
14611;SDS011;7392;52.078;11.650;2023-03-23T10:32:20;1.90;;;1.40;;
14611;SDS011;7392;52.078;11.650;2023-03-23T10:34:50;3.90;;;1.60;;
14611;SDS011;7392;52.078;11.650;2023-03-23T10:37:25;2.37;;;1.60;;
14611;SDS011;7392;52.078;11.650;2023-03-23T10:39:57;3.80;;;1.27;;
14611;SDS011;7392;52.078;11.650;2023-03-23T10:42:26;3.73;;;1.43;;
14611;SDS011;7392;52.078;11.650;2023-03-23T10:44:54;3.13;;;1.47;;
14611;SDS011;7392;52.078;11.650;2023-03-23T10:47:22;2.17;;;1.57;;
14611;SDS011;7392;52.078;11.650;2023-03-23T10:49:50;1.87;;;1.53;;
14611;SDS011;7392;52.078;11.650;2023-03-23T10:52:27;1.97;;;1.37;;
14611;SDS011;7392;52.078;11.650;2023-03-23T10:55:01;2.00;;;1.23;;
14611;SDS011;7392;52.078;11.650;2023-03-23T10:57:30;2.10;;;1.33;;
14611;SDS011;7392;52.078;11.650;2023-03-23T10:59:59;2.00;;;1.50;;
14611;SDS011;7392;52.078;11.650;2023-03-23T11:02:31;2.23;;;1.50;;
14611;SDS011;7392;52.078;11.650;2023-03-23T11:05:03;3.53;;;1.53;;
14611;SDS011;7392;52.078;11.650;2023-03-23T11:07:33;2.87;;;1.50;;
14611;SDS011;7392;52.078;11.650;2023-03-23T11:10:24;3.00;;;1.67;;
14611;SDS011;7392;52.078;11.650;2023-03-23T11:12:54;2.13;;;1.20;;
14611;SDS011;7392;52.078;11.650;2023-03-23T11:15:33;5.70;;;3.20;;
14611;SDS011;7392;52.078;11.650;2023-03-23T11:18:03;2.53;;;1.77;;
14611;SDS011;7392;52.078;11.650;2023-03-23T11:20:34;2.13;;;1.50;;
14611;SDS011;7392;52.078;11.650;2023-03-23T11:23:07;2.27;;;1.30;;
14611;SDS011;7392;52.078;11.650;2023-03-23T11:25:52;3.13;;;1.70;;
14611;SDS011;7392;52.078;11.650;2023-03-23T11:28:22;2.13;;;1.43;;
14611;SDS011;7392;52.078;11.650;2023-03-23T11:30:54;3.27;;;1.40;;
14611;SDS011;7392;52.078;11.650;2023-03-23T11:33:21;2.37;;;1.40;;
14611;SDS011;7392;52.078;11.650;2023-03-23T11:35:52;3.43;;;1.50;;
14611;SDS011;7392;52.078;11.650;2023-03-23T11:38:21;2.97;;;1.70;;
14611;SDS011;7392;52.078;11.650;2023-03-23T11:40:52;5.97;;;1.60;;
14611;SDS011;7392;52.078;11.650;2023-03-23T11:43:19;2.30;;;1.50;;
14611;SDS011;7392;52.078;11.650;2023-03-23T11:45:49;3.50;;;1.57;;
14611;SDS011;7392;52.078;11.650;2023-03-23T11:48:25;2.63;;;1.70;;
14611;SDS011;7392;52.078;11.650;2023-03-23T11:50:55;3.83;;;1.97;;
14611;SDS011;7392;52.078;11.650;2023-03-23T11:53:29;2.53;;;1.50;;
14611;SDS011;7392;52.078;11.650;2023-03-23T11:56:06;2.90;;;1.87;;
14611;SDS011;7392;52.078;11.650;2023-03-23T11:58:38;3.97;;;1.70;;
14611;SDS011;7392;52.078;11.650;2023-03-23T12:01:21;3.17;;;1.93;;
14611;SDS011;7392;52.078;11.650;2023-03-23T12:06:58;3.20;;;1.53;;
14611;SDS011;7392;52.078;11.650;2023-03-23T12:09:42;3.33;;;2.00;;
14611;SDS011;7392;52.078;11.650;2023-03-23T12:12:18;3.73;;;2.03;;
14611;SDS011;7392;52.078;11.650;2023-03-23T12:14:56;3.57;;;1.80;;
14611;SDS011;7392;52.078;11.650;2023-03-23T12:17:33;2.77;;;1.33;;
14611;SDS011;7392;52.078;11.650;2023-03-23T12:20:15;2.53;;;1.50;;
14611;SDS011;7392;52.078;11.650;2023-03-23T12:22:55;2.53;;;1.50;;
14611;SDS011;7392;52.078;11.650;2023-03-23T12:25:54;3.00;;;1.30;;
14611;SDS011;7392;52.078;11.650;2023-03-23T12:32:13;2.90;;;1.60;;
14611;SDS011;7392;52.078;11.650;2023-03-23T12:34:54;2.93;;;1.80;;
14611;SDS011;7392;52.078;11.650;2023-03-23T12:37:37;4.10;;;1.63;;
14611;SDS011;7392;52.078;11.650;2023-03-23T12:40:18;1.90;;;1.60;;
14611;SDS011;7392;52.078;11.650;2023-03-23T12:42:52;2.20;;;1.47;;
14611;SDS011;7392;52.078;11.650;2023-03-23T12:45:37;3.23;;;1.50;;
14611;SDS011;7392;52.078;11.650;2023-03-23T12:48:15;3.50;;;1.60;;
14611;SDS011;7392;52.078;11.650;2023-03-23T12:50:47;4.43;;;1.50;;
14611;SDS011;7392;52.078;11.650;2023-03-23T12:53:27;2.83;;;1.30;;
14611;SDS011;7392;52.078;11.650;2023-03-23T12:56:04;3.63;;;1.40;;
14611;SDS011;7392;52.078;11.650;2023-03-23T12:58:40;2.43;;;1.40;;
14611;SDS011;7392;52.078;11.650;2023-03-23T13:01:14;2.60;;;1.37;;
14611;SDS011;7392;52.078;11.650;2023-03-23T13:03:49;3.93;;;1.70;;
14611;SDS011;7392;52.078;11.650;2023-03-23T13:06:22;3.00;;;1.30;;
14611;SDS011;7392;52.078;11.650;2023-03-23T13:08:53;2.33;;;1.10;;
14611;SDS011;7392;52.078;11.650;2023-03-23T13:11:24;3.93;;;1.60;;
14611;SDS011;7392;52.078;11.650;2023-03-23T13:13:59;2.13;;;1.20;;
14611;SDS011;7392;52.078;11.650;2023-03-23T13:16:38;2.53;;;1.63;;
14611;SDS011;7392;52.078;11.650;2023-03-23T13:19:13;2.63;;;1.10;;
14611;SDS011;7392;52.078;11.650;2023-03-23T13:21:45;5.50;;;1.60;;
14611;SDS011;7392;52.078;11.650;2023-03-23T13:24:17;2.80;;;1.37;;
14611;SDS011;7392;52.078;11.650;2023-03-23T13:26:48;1.87;;;1.40;;
14611;SDS011;7392;52.078;11.650;2023-03-23T13:29:17;3.53;;;1.50;;
14611;SDS011;7392;52.078;11.650;2023-03-23T13:31:47;2.43;;;1.40;;
14611;SDS011;7392;52.078;11.650;2023-03-23T13:34:15;2.97;;;1.50;;
14611;SDS011;7392;52.078;11.650;2023-03-23T13:36:51;2.57;;;1.30;;
14611;SDS011;7392;52.078;11.650;2023-03-23T13:39:21;4.03;;;1.60;;
14611;SDS011;7392;52.078;11.650;2023-03-23T13:41:58;2.27;;;1.20;;
14611;SDS011;7392;52.078;11.650;2023-03-23T13:44:40;3.53;;;1.40;;
14611;SDS011;7392;52.078;11.650;2023-03-23T13:47:21;3.57;;;1.50;;
14611;SDS011;7392;52.078;11.650;2023-03-23T13:49:54;4.07;;;1.60;;
14611;SDS011;7392;52.078;11.650;2023-03-23T13:52:23;2.83;;;1.60;;
14611;SDS011;7392;52.078;11.650;2023-03-23T13:55:19;3.23;;;1.53;;
14611;SDS011;7392;52.078;11.650;2023-03-23T13:57:55;3.03;;;1.37;;
14611;SDS011;7392;52.078;11.650;2023-03-23T14:00:33;3.00;;;1.70;;
14611;SDS011;7392;52.078;11.650;2023-03-23T14:03:14;2.73;;;1.40;;
14611;SDS011;7392;52.078;11.650;2023-03-23T14:05:45;3.53;;;1.60;;
14611;SDS011;7392;52.078;11.650;2023-03-23T14:08:20;2.80;;;1.40;;
14611;SDS011;7392;52.078;11.650;2023-03-23T14:10:51;1.60;;;1.20;;
14611;SDS011;7392;52.078;11.650;2023-03-23T14:13:23;4.67;;;1.53;;
14611;SDS011;7392;52.078;11.650;2023-03-23T14:15:55;3.67;;;1.50;;
14611;SDS011;7392;52.078;11.650;2023-03-23T14:18:27;3.13;;;1.07;;
14611;SDS011;7392;52.078;11.650;2023-03-23T14:20:57;5.23;;;1.60;;
14611;SDS011;7392;52.078;11.650;2023-03-23T14:23:25;2.57;;;1.40;;
14611;SDS011;7392;52.078;11.650;2023-03-23T14:25:56;3.37;;;1.73;;
14611;SDS011;7392;52.078;11.650;2023-03-23T14:28:35;1.80;;;1.20;;
14611;SDS011;7392;52.078;11.650;2023-03-23T14:31:03;2.47;;;1.23;;
14611;SDS011;7392;52.078;11.650;2023-03-23T14:33:32;2.93;;;1.50;;
14611;SDS011;7392;52.078;11.650;2023-03-23T14:35:59;4.00;;;1.57;;
14611;SDS011;7392;52.078;11.650;2023-03-23T14:38:26;2.67;;;1.60;;
14611;SDS011;7392;52.078;11.650;2023-03-23T14:40:59;3.60;;;1.80;;
14611;SDS011;7392;52.078;11.650;2023-03-23T14:43:27;2.47;;;1.20;;
14611;SDS011;7392;52.078;11.650;2023-03-23T14:45:56;3.73;;;1.40;;
14611;SDS011;7392;52.078;11.650;2023-03-23T14:48:25;4.40;;;1.50;;
14611;SDS011;7392;52.078;11.650;2023-03-23T14:50:55;3.37;;;1.30;;
14611;SDS011;7392;52.078;11.650;2023-03-23T14:53:23;1.80;;;1.10;;
14611;SDS011;7392;52.078;11.650;2023-03-23T14:55:52;2.27;;;1.00;;
14611;SDS011;7392;52.078;11.650;2023-03-23T14:58:21;2.30;;;0.90;;
14611;SDS011;7392;52.078;11.650;2023-03-23T15:00:52;2.30;;;1.37;;
14611;SDS011;7392;52.078;11.650;2023-03-23T15:03:22;3.13;;;1.47;;
14611;SDS011;7392;52.078;11.650;2023-03-23T15:05:50;2.33;;;1.30;;
14611;SDS011;7392;52.078;11.650;2023-03-23T15:08:22;1.67;;;1.10;;
14611;SDS011;7392;52.078;11.650;2023-03-23T15:10:57;2.13;;;1.00;;
14611;SDS011;7392;52.078;11.650;2023-03-23T15:13:30;2.20;;;1.10;;
14611;SDS011;7392;52.078;11.650;2023-03-23T15:16:01;1.33;;;1.10;;
14611;SDS011;7392;52.078;11.650;2023-03-23T15:18:31;2.00;;;1.10;;
14611;SDS011;7392;52.078;11.650;2023-03-23T15:21:07;2.77;;;1.00;;
14611;SDS011;7392;52.078;11.650;2023-03-23T15:23:40;3.47;;;1.20;;
14611;SDS011;7392;52.078;11.650;2023-03-23T15:26:10;2.40;;;1.23;;
14611;SDS011;7392;52.078;11.650;2023-03-23T15:28:47;2.03;;;0.80;;
14611;SDS011;7392;52.078;11.650;2023-03-23T15:31:13;1.03;;;0.83;;
14611;SDS011;7392;52.078;11.650;2023-03-23T15:33:40;2.13;;;1.00;;
14611;SDS011;7392;52.078;11.650;2023-03-23T15:36:08;2.43;;;1.07;;
14611;SDS011;7392;52.078;11.650;2023-03-23T15:38:43;1.63;;;0.83;;